Time;durP1;ratioP1;P1;durP2;ratioP2;P2;SDS_P1;SDS_P2;PMS_P1;PMS_P2;Temp;Humidity;BMP_temperature;BMP_pressure;BME280_temperature;BME280_humidity;BME280_pressure;Samples;Min_cycle;Max_cycle;Signal;HPM_P1;HPM_P2
2023/03/25 00:02:22;;;;;;;4.85;1.13;;;;;;;;;;5010862;28;20038;-59
2023/03/25 00:04:52;;;;;;;2.33;1.08;;;;;;;;;;5010936;28;20041;-59
2023/03/25 00:07:20;;;;;;;4.93;0.98;;;;;;;;;;5011232;28;20046;-58
2023/03/25 00:09:46;;;;;;;12.15;1.55;;;;;;;;;;5010859;28;20042;-59
2023/03/25 00:12:15;;;;;;;6.78;1.48;;;;;;;;;;5009964;28;20041;-59
2023/03/25 00:14:42;;;;;;;5.88;1.48;;;;;;;;;;5009205;28;20037;-59
2023/03/25 00:17:09;;;;;;;4.05;1.75;;;;;;;;;;5010591;28;20030;-59
2023/03/25 00:19:35;;;;;;;4.82;1.55;;;;;;;;;;5009978;28;20045;-59
2023/03/25 00:22:01;;;;;;;6.55;1.70;;;;;;;;;;5009334;28;20064;-60
2023/03/25 00:24:28;;;;;;;7.13;1.70;;;;;;;;;;5009897;28;20030;-60
2023/03/25 00:26:54;;;;;;;4.95;1.08;;;;;;;;;;5010324;28;20739;-59
2023/03/25 00:29:21;;;;;;;2.83;1.15;;;;;;;;;;5007499;28;20049;-60
2023/03/25 00:31:47;;;;;;;1.80;0.90;;;;;;;;;;5009264;28;20048;-59
2023/03/25 00:34:13;;;;;;;1.80;1.10;;;;;;;;;;5010310;28;20045;-60
2023/03/25 00:36:42;;;;;;;3.38;1.10;;;;;;;;;;5009936;28;20050;-59
2023/03/25 00:39:09;;;;;;;4.55;1.20;;;;;;;;;;5009757;28;20052;-59
2023/03/25 00:41:36;;;;;;;2.72;1.20;;;;;;;;;;5008647;28;20793;-59
2023/03/25 00:44:03;;;;;;;4.43;1.08;;;;;;;;;;5008381;28;20046;-59
2023/03/25 00:46:31;;;;;;;3.28;1.00;;;;;;;;;;5005751;28;20049;-59
2023/03/25 00:48:59;;;;;;;6.38;1.35;;;;;;;;;;5008476;28;20030;-59
2023/03/25 00:51:26;;;;;;;1.10;0.75;;;;;;;;;;5008173;28;20526;-60
2023/03/25 00:53:54;;;;;;;3.33;1.00;;;;;;;;;;5009211;28;20053;-59
2023/03/25 00:56:21;;;;;;;3.40;1.02;;;;;;;;;;5008791;28;20038;-60
2023/03/25 00:58:48;;;;;;;6.35;0.93;;;;;;;;;;5008516;28;20415;-58
2023/03/25 01:01:17;;;;;;;4.13;1.33;;;;;;;;;;5008853;28;20049;-59
2023/03/25 01:03:43;;;;;;;2.75;1.25;;;;;;;;;;5009590;28;20033;-59
2023/03/25 01:06:10;;;;;;;3.88;1.00;;;;;;;;;;5007606;28;20049;-59
2023/03/25 01:08:38;;;;;;;0.80;0.70;;;;;;;;;;5009197;28;20042;-58
2023/03/25 01:11:05;;;;;;;4.97;1.70;;;;;;;;;;5007381;28;20042;-59
2023/03/25 01:13:31;;;;;;;2.38;1.00;;;;;;;;;;5009313;28;20070;-59
2023/03/25 01:15:57;;;;;;;1.85;0.80;;;;;;;;;;5007329;28;20371;-59
2023/03/25 01:18:23;;;;;;;1.17;0.70;;;;;;;;;;5009821;28;20496;-59
2023/03/25 01:20:50;;;;;;;3.80;1.00;;;;;;;;;;5006849;28;20397;-59
2023/03/25 01:23:16;;;;;;;6.38;0.88;;;;;;;;;;5008602;28;20049;-59
2023/03/25 01:25:42;;;;;;;2.65;0.85;;;;;;;;;;5007188;28;20056;-59
2023/03/25 01:28:09;;;;;;;6.07;0.98;;;;;;;;;;5009138;28;20339;-61
2023/03/25 01:30:35;;;;;;;3.85;1.38;;;;;;;;;;5007092;28;20045;-59
2023/03/25 01:33:01;;;;;;;3.75;1.00;;;;;;;;;;5008692;28;20034;-59
2023/03/25 01:35:27;;;;;;;1.98;0.90;;;;;;;;;;5007708;28;20492;-59
2023/03/25 01:37:54;;;;;;;3.42;1.00;;;;;;;;;;5007468;28;20030;-59
2023/03/25 01:40:23;;;;;;;4.82;1.10;;;;;;;;;;5005919;28;20045;-58
2023/03/25 01:42:49;;;;;;;7.82;1.20;;;;;;;;;;5008571;28;20049;-58
2023/03/25 01:45:24;;;;;;;5.10;1.08;;;;;;;;;;5007210;28;20038;-60
2023/03/25 01:48:00;;;;;;;3.08;1.50;;;;;;;;;;5006614;28;20364;-59
2023/03/25 01:50:28;;;;;;;5.88;1.10;;;;;;;;;;5008251;28;20038;-60
2023/03/25 01:52:56;;;;;;;2.90;0.90;;;;;;;;;;5007357;28;20061;-59
2023/03/25 01:55:23;;;;;;;3.42;1.15;;;;;;;;;;5008977;28;20034;-59
2023/03/25 01:57:53;;;;;;;2.60;1.00;;;;;;;;;;5008975;28;20140;-58
2023/03/25 02:00:20;;;;;;;5.10;1.27;;;;;;;;;;5006628;28;20037;-59
2023/03/25 02:02:47;;;;;;;3.28;0.90;;;;;;;;;;5006893;28;20026;-59
2023/03/25 02:05:19;;;;;;;2.90;0.82;;;;;;;;;;5006487;28;20053;-59
2023/03/25 02:07:47;;;;;;;4.40;1.05;;;;;;;;;;5008675;28;20049;-59
2023/03/25 02:10:14;;;;;;;4.38;1.08;;;;;;;;;;5008191;28;20037;-59
2023/03/25 02:12:41;;;;;;;3.90;1.10;;;;;;;;;;5008293;28;20038;-58
2023/03/25 02:15:09;;;;;;;3.30;0.75;;;;;;;;;;5007447;28;20025;-58
2023/03/25 02:17:53;;;;;;;2.22;0.77;;;;;;;;;;5008322;28;20057;-60
2023/03/25 02:20:34;;;;;;;3.50;0.75;;;;;;;;;;5006917;28;20545;-60
2023/03/25 02:23:00;;;;;;;0.75;0.60;;;;;;;;;;5007675;28;20030;-59
2023/03/25 02:26:04;;;;;;;3.83;1.05;;;;;;;;;;5008296;28;20038;-59
2023/03/25 02:28:38;;;;;;;3.08;1.05;;;;;;;;;;5007966;28;20045;-60
2023/03/25 02:31:42;;;;;;;0.50;0.50;;;;;;;;;;5006658;28;20045;-58
2023/03/25 02:34:42;;;;;;;2.38;0.80;;;;;;;;;;5033847;28;20030;-59
2023/03/25 02:37:46;;;;;;;3.03;0.75;;;;;;;;;;5002552;28;20046;-60
2023/03/25 02:40:24;;;;;;;3.67;0.90;;;;;;;;;;5034772;28;20056;-60
2023/03/25 02:43:20;;;;;;;4.32;1.17;;;;;;;;;;5008840;28;20046;-59
2023/03/25 02:45:53;;;;;;;1.05;0.60;;;;;;;;;;5006628;28;20038;-59
2023/03/25 02:48:24;;;;;;;1.90;0.70;;;;;;;;;;5007069;28;20071;-59
2023/03/25 02:50:55;;;;;;;1.92;0.73;;;;;;;;;;5007246;28;20064;-59
2023/03/25 02:53:27;;;;;;;1.13;0.68;;;;;;;;;;5007338;28;20033;-59
2023/03/25 02:55:58;;;;;;;6.60;1.13;;;;;;;;;;5008323;28;20068;-60
2023/03/25 02:58:26;;;;;;;4.15;0.80;;;;;;;;;;5008372;28;20041;-60
2023/03/25 03:00:57;;;;;;;0.63;0.63;;;;;;;;;;5006326;28;20782;-59
2023/03/25 03:03:25;;;;;;;4.88;0.90;;;;;;;;;;5008060;28;20519;-60
2023/03/25 03:05:57;;;;;;;5.18;1.00;;;;;;;;;;5007141;28;20432;-61
2023/03/25 03:08:36;;;;;;;6.28;0.93;;;;;;;;;;5007526;28;20052;-61
2023/03/25 03:11:20;;;;;;;6.03;1.00;;;;;;;;;;5007496;28;20038;-60
2023/03/25 03:14:17;;;;;;;1.00;0.60;;;;;;;;;;5007863;28;20049;-61
2023/03/25 03:17:34;;;;;;;4.43;0.55;;;;;;;;;;5007908;28;20057;-62
2023/03/25 03:20:18;;;;;;;5.00;1.50;;;;;;;;;;5011424;28;20033;-60
2023/03/25 03:22:51;;;;;;;2.40;1.38;;;;;;;;;;5010487;28;20420;-59
2023/03/25 03:25:21;;;;;;;1.20;0.77;;;;;;;;;;5010921;28;20476;-60
2023/03/25 03:27:53;;;;;;;1.85;0.70;;;;;;;;;;5010329;28;20756;-60
2023/03/25 03:30:41;;;;;;;2.97;0.70;;;;;;;;;;5010636;28;20052;-60
2023/03/25 03:33:15;;;;;;;2.47;0.93;;;;;;;;;;5009022;28;20700;-59
2023/03/25 03:35:50;;;;;;;1.58;0.80;;;;;;;;;;5009224;28;20133;-60
2023/03/25 03:38:20;;;;;;;2.83;0.63;;;;;;;;;;5004935;28;20042;-59
2023/03/25 03:40:54;;;;;;;2.58;0.85;;;;;;;;;;5009122;28;20038;-59
2023/03/25 03:43:29;;;;;;;5.00;1.00;;;;;;;;;;5011440;28;20021;-59
2023/03/25 03:46:04;;;;;;;1.15;0.70;;;;;;;;;;5011235;28;20037;-59
2023/03/25 03:48:47;;;;;;;1.33;0.60;;;;;;;;;;5012516;28;20053;-60
2023/03/25 03:51:18;;;;;;;2.92;0.75;;;;;;;;;;5040714;28;20037;-60
2023/03/25 03:53:49;;;;;;;1.13;0.50;;;;;;;;;;5012085;28;20049;-59
2023/03/25 03:56:21;;;;;;;2.38;0.70;;;;;;;;;;5005512;28;20033;-59
2023/03/25 03:58:53;;;;;;;3.33;1.10;;;;;;;;;;5011502;28;20045;-59
2023/03/25 04:01:32;;;;;;;4.47;0.82;;;;;;;;;;5010929;28;20052;-59
2023/03/25 04:04:01;;;;;;;4.63;1.13;;;;;;;;;;5011385;28;20045;-59
2023/03/25 04:06:40;;;;;;;2.65;0.75;;;;;;;;;;5006759;28;20109;-59
2023/03/25 04:09:26;;;;;;;4.72;0.90;;;;;;;;;;5008464;28;20041;-59
2023/03/25 04:12:18;;;;;;;1.40;0.80;;;;;;;;;;5009568;28;20110;-59
2023/03/25 04:14:45;;;;;;;2.40;1.05;;;;;;;;;;5009954;28;20761;-60
2023/03/25 04:17:11;;;;;;;3.88;2.05;;;;;;;;;;5010376;28;20090;-59
2023/03/25 04:19:38;;;;;;;4.78;1.05;;;;;;;;;;5010329;28;20049;-58
2023/03/25 04:22:05;;;;;;;3.50;0.90;;;;;;;;;;5009353;28;20495;-58
2023/03/25 04:24:36;;;;;;;2.67;0.90;;;;;;;;;;5006424;28;20038;-59
2023/03/25 04:27:03;;;;;;;4.20;1.10;;;;;;;;;;5008508;28;20109;-58
2023/03/25 04:29:32;;;;;;;5.80;1.02;;;;;;;;;;5008084;28;20033;-58
2023/03/25 04:31:59;;;;;;;3.95;1.13;;;;;;;;;;5009952;28;20381;-59
2023/03/25 04:34:26;;;;;;;6.65;1.13;;;;;;;;;;5009083;28;20038;-59
2023/03/25 04:36:53;;;;;;;3.08;1.00;;;;;;;;;;5010651;28;20499;-59
2023/03/25 04:39:21;;;;;;;7.90;1.20;;;;;;;;;;5010328;28;20029;-59
2023/03/25 04:41:49;;;;;;;6.60;1.17;;;;;;;;;;5009430;28;20066;-60
2023/03/25 04:44:16;;;;;;;2.20;0.90;;;;;;;;;;5010069;28;20365;-59
2023/03/25 04:46:42;;;;;;;4.97;1.00;;;;;;;;;;5009054;28;20050;-59
2023/03/25 04:49:20;;;;;;;5.22;1.50;;;;;;;;;;5009842;28;20053;-59
2023/03/25 04:51:51;;;;;;;9.32;1.20;;;;;;;;;;5005811;28;20052;-60
2023/03/25 04:54:20;;;;;;;8.48;1.20;;;;;;;;;;5004716;28;20041;-59
2023/03/25 04:56:48;;;;;;;4.43;1.02;;;;;;;;;;5008940;28;20025;-59
2023/03/25 04:59:15;;;;;;;6.35;1.10;;;;;;;;;;5009673;28;20060;-59
2023/03/25 05:01:44;;;;;;;5.80;1.20;;;;;;;;;;5008424;28;20049;-59
2023/03/25 05:04:13;;;;;;;6.85;1.48;;;;;;;;;;5009228;28;20052;-60
2023/03/25 05:06:42;;;;;;;4.85;1.38;;;;;;;;;;5009290;28;20036;-59
2023/03/25 05:09:17;;;;;;;3.03;1.20;;;;;;;;;;5009718;28;20042;-59
2023/03/25 05:11:44;;;;;;;7.28;1.33;;;;;;;;;;5010006;28;20385;-59
2023/03/25 05:14:13;;;;;;;8.75;1.23;;;;;;;;;;5007874;28;20064;-60
2023/03/25 05:16:40;;;;;;;5.23;1.30;;;;;;;;;;5009696;28;20488;-59
2023/03/25 05:19:06;;;;;;;5.32;1.23;;;;;;;;;;5008963;28;20042;-59
2023/03/25 05:21:36;;;;;;;2.78;1.00;;;;;;;;;;5008704;28;20041;-59
2023/03/25 05:24:03;;;;;;;;;;;;;;;;;;5009102;28;20038;-58
2023/03/25 05:26:33;;;;;;;7.68;1.33;;;;;;;;;;5009494;28;19914;-59
2023/03/25 05:29:04;;;;;;;9.52;1.05;;;;;;;;;;5008970;28;20034;-59
2023/03/25 05:31:30;;;;;;;3.20;1.17;;;;;;;;;;5008418;28;20033;-59
2023/03/25 05:33:56;;;;;;;5.43;1.30;;;;;;;;;;5009895;28;20408;-58
2023/03/25 05:36:25;;;;;;;3.38;1.20;;;;;;;;;;5009649;28;20053;-59
2023/03/25 05:38:55;;;;;;;12.45;1.80;;;;;;;;;;5008304;28;20042;-58
2023/03/25 05:41:31;;;;;;;4.85;1.33;;;;;;;;;;5008323;28;20057;-56
2023/03/25 05:44:00;;;;;;;10.95;1.70;;;;;;;;;;5009861;28;20053;-59
2023/03/25 05:46:28;;;;;;;2.30;1.00;;;;;;;;;;5008946;28;20053;-60
2023/03/25 05:48:56;;;;;;;11.63;1.30;;;;;;;;;;5008939;28;20285;-60
2023/03/25 05:51:24;;;;;;;3.58;1.20;;;;;;;;;;5009420;28;20045;-59
2023/03/25 05:53:50;;;;;;;5.95;1.38;;;;;;;;;;5009704;28;20077;-57
2023/03/25 05:56:18;;;;;;;6.82;1.40;;;;;;;;;;5008935;28;20041;-59
2023/03/25 05:58:45;;;;;;;15.80;3.53;;;;;;;;;;5009658;28;20407;-59
2023/03/25 06:01:15;;;;;;;5.30;1.67;;;;;;;;;;5007408;28;20041;-59
2023/03/25 06:03:43;;;;;;;7.72;1.58;;;;;;;;;;5007661;28;20503;-60
2023/03/25 06:06:13;;;;;;;5.28;1.33;;;;;;;;;;5008923;28;20053;-60
2023/03/25 06:08:46;;;;;;;7.93;1.63;;;;;;;;;;5009625;28;20060;-61
2023/03/25 06:11:12;;;;;;;6.93;1.60;;;;;;;;;;5001828;28;20041;-61
2023/03/25 06:13:39;;;;;;;11.95;2.75;;;;;;;;;;5009447;28;20034;-61
2023/03/25 06:16:07;;;;;;;9.38;2.13;;;;;;;;;;5008531;28;20495;-60
2023/03/25 06:18:35;;;;;;;5.95;1.80;;;;;;;;;;5009022;28;20029;-60
2023/03/25 06:21:02;;;;;;;6.68;1.30;;;;;;;;;;5008654;28;20041;-61
2023/03/25 06:23:30;;;;;;;10.07;1.55;;;;;;;;;;5009221;28;20399;-61
2023/03/25 06:25:57;;;;;;;19.42;2.60;;;;;;;;;;5008743;28;20060;-60
2023/03/25 06:28:23;;;;;;;7.32;1.73;;;;;;;;;;4991474;28;20053;-60
2023/03/25 06:30:49;;;;;;;9.88;1.60;;;;;;;;;;5004869;28;20045;-60
2023/03/25 06:33:18;;;;;;;3.28;1.08;;;;;;;;;;5008437;28;20052;-60
2023/03/25 06:35:53;;;;;;;7.68;1.17;;;;;;;;;;5008179;28;20519;-61
2023/03/25 06:38:23;;;;;;;7.50;1.50;;;;;;;;;;5007950;28;20045;-61
2023/03/25 06:41:01;;;;;;;5.13;1.23;;;;;;;;;;5007158;28;20439;-61
2023/03/25 06:43:28;;;;;;;3.60;1.20;;;;;;;;;;5008165;28;20037;-60
2023/03/25 06:46:15;;;;;;;8.63;0.90;;;;;;;;;;5007400;28;20046;-61
2023/03/25 06:49:04;;;;;;;7.60;1.20;;;;;;;;;;5006470;28;20601;-60
2023/03/25 06:51:30;;;;;;;3.42;1.33;;;;;;;;;;5009074;28;20038;-61
2023/03/25 06:53:56;;;;;;;5.50;1.67;;;;;;;;;;5006821;28;20065;-62
2023/03/25 06:56:22;;;;;;;2.45;1.08;;;;;;;;;;5006268;28;20034;-62
2023/03/25 06:58:48;;;;;;;3.65;0.93;;;;;;;;;;5012608;28;20034;-60
2023/03/25 07:01:15;;;;;;;3.70;1.25;;;;;;;;;;5011477;28;20049;-60
2023/03/25 07:03:41;;;;;;;4.53;1.10;;;;;;;;;;5010368;28;20049;-60
2023/03/25 07:06:15;;;;;;;4.40;1.10;;;;;;;;;;5012421;28;20061;-61
2023/03/25 07:08:41;;;;;;;5.72;2.00;;;;;;;;;;5009491;28;20105;-59
2023/03/25 07:11:09;;;;;;;5.10;1.33;;;;;;;;;;5010185;28;20042;-62
2023/03/25 07:13:35;;;;;;;12.18;1.00;;;;;;;;;;5009562;28;20034;-61
2023/03/25 07:16:02;;;;;;;2.92;0.90;;;;;;;;;;5011003;28;20038;-61
2023/03/25 07:18:28;;;;;;;5.57;1.55;;;;;;;;;;5012236;28;20495;-61
2023/03/25 07:20:54;;;;;;;3.90;0.85;;;;;;;;;;5011287;28;20042;-61
2023/03/25 07:23:21;;;;;;;4.05;0.88;;;;;;;;;;5011716;28;20060;-61
2023/03/25 07:25:47;;;;;;;3.58;1.15;;;;;;;;;;5011844;28;20522;-61
2023/03/25 07:28:13;;;;;;;4.85;0.90;;;;;;;;;;5010418;28;20049;-60
2023/03/25 07:30:45;;;;;;;1.73;1.00;;;;;;;;;;5009803;28;20046;-61
2023/03/25 07:33:11;;;;;;;2.67;0.88;;;;;;;;;;5011954;28;20503;-60
2023/03/25 07:35:37;;;;;;;8.82;2.50;;;;;;;;;;5011845;28;20391;-61
2023/03/25 07:38:04;;;;;;;5.05;0.80;;;;;;;;;;5011357;28;20030;-60
2023/03/25 07:40:30;;;;;;;4.03;0.80;;;;;;;;;;5011587;28;20046;-61
2023/03/25 07:42:56;;;;;;;2.88;0.70;;;;;;;;;;5010965;28;20038;-61
2023/03/25 07:45:34;;;;;;;2.50;1.23;;;;;;;;;;5006081;28;20038;-61
2023/03/25 07:48:01;;;;;;;3.17;0.73;;;;;;;;;;5011268;28;20046;-60
2023/03/25 07:50:27;;;;;;;2.97;1.02;;;;;;;;;;5011611;28;20038;-61
2023/03/25 07:52:54;;;;;;;3.35;1.08;;;;;;;;;;4993825;28;20038;-60
2023/03/25 07:55:21;;;;;;;1.52;0.70;;;;;;;;;;5006657;28;20048;-60
2023/03/25 07:57:47;;;;;;;3.92;0.70;;;;;;;;;;5007497;28;20029;-61
2023/03/25 08:00:13;;;;;;;1.90;0.50;;;;;;;;;;5009167;28;20674;-62
2023/03/25 08:02:40;;;;;;;1.75;0.60;;;;;;;;;;5007841;28;20039;-60
2023/03/25 08:05:06;;;;;;;1.92;0.70;;;;;;;;;;5006412;28;20038;-60
2023/03/25 08:07:33;;;;;;;1.50;0.60;;;;;;;;;;5008807;28;20053;-61
2023/03/25 08:09:59;;;;;;;1.85;0.85;;;;;;;;;;5009515;28;20052;-61
2023/03/25 08:12:25;;;;;;;1.55;0.60;;;;;;;;;;5009865;28;20034;-60
2023/03/25 08:14:51;;;;;;;2.10;0.80;;;;;;;;;;5008132;28;20041;-62
2023/03/25 08:17:17;;;;;;;2.67;0.80;;;;;;;;;;5008530;28;20036;-60
2023/03/25 08:19:43;;;;;;;2.00;0.60;;;;;;;;;;5010003;28;20026;-59
2023/03/25 08:22:09;;;;;;;3.65;0.85;;;;;;;;;;5010893;28;20627;-63
2023/03/25 08:24:36;;;;;;;1.27;0.80;;;;;;;;;;5010832;28;20042;-64
2023/03/25 08:27:02;;;;;;;1.80;0.63;;;;;;;;;;5011203;28;20057;-61
2023/03/25 08:29:28;;;;;;;5.65;1.30;;;;;;;;;;5010529;28;20029;-60
2023/03/25 08:31:55;;;;;;;4.38;0.93;;;;;;;;;;5010648;28;20042;-60
2023/03/25 08:34:22;;;;;;;5.60;1.10;;;;;;;;;;5009523;28;20022;-60
2023/03/25 08:36:48;;;;;;;3.85;1.40;;;;;;;;;;5010757;28;20089;-60
2023/03/25 08:39:17;;;;;;;1.98;0.80;;;;;;;;;;5009809;28;20061;-62
2023/03/25 08:41:44;;;;;;;1.45;0.95;;;;;;;;;;5009475;28;20393;-61
2023/03/25 08:44:11;;;;;;;0.90;0.80;;;;;;;;;;5009561;28;20046;-61
2023/03/25 08:46:37;;;;;;;1.63;0.68;;;;;;;;;;5010034;28;20456;-61
2023/03/25 08:49:05;;;;;;;2.00;0.68;;;;;;;;;;5008733;28;20033;-60
2023/03/25 08:51:31;;;;;;;2.00;0.90;;;;;;;;;;5009282;28;20531;-61
2023/03/25 08:53:57;;;;;;;3.03;0.80;;;;;;;;;;5009157;28;20053;-61
2023/03/25 08:56:23;;;;;;;2.78;0.70;;;;;;;;;;5009617;28;20050;-60
2023/03/25 08:58:49;;;;;;;4.65;0.90;;;;;;;;;;4991590;28;20038;-60
2023/03/25 09:01:15;;;;;;;3.38;0.98;;;;;;;;;;5007554;28;20042;-62
2023/03/25 09:03:42;;;;;;;0.85;0.50;;;;;;;;;;5009336;28;20026;-61
2023/03/25 09:06:08;;;;;;;2.50;1.10;;;;;;;;;;5007765;28;20407;-61
2023/03/25 09:08:38;;;;;;;1.50;0.90;;;;;;;;;;5009557;28;20061;-60
2023/03/25 09:11:04;;;;;;;;;;;;;;;;;;5007417;28;20536;-61
2023/03/25 09:13:30;;;;;;;1.23;0.70;;;;;;;;;;5008585;28;20260;-61
2023/03/25 09:15:57;;;;;;;1.65;1.10;;;;;;;;;;5007279;28;20455;-60
2023/03/25 09:18:24;;;;;;;3.22;0.73;;;;;;;;;;5009583;28;20053;-61
2023/03/25 09:20:50;;;;;;;8.23;2.65;;;;;;;;;;5008234;28;20517;-62
2023/03/25 09:23:17;;;;;;;1.95;0.90;;;;;;;;;;5008010;28;20050;-61
2023/03/25 09:25:43;;;;;;;2.03;1.08;;;;;;;;;;5009176;28;20041;-60
2023/03/25 09:28:10;;;;;;;6.72;1.00;;;;;;;;;;5008721;28;20053;-59
2023/03/25 09:30:36;;;;;;;6.00;1.00;;;;;;;;;;5008096;28;20522;-61
2023/03/25 09:33:02;;;;;;;1.95;0.77;;;;;;;;;;5034477;28;20038;-60
2023/03/25 09:35:29;;;;;;;2.17;1.08;;;;;;;;;;5003141;28;20510;-60
2023/03/25 09:37:55;;;;;;;2.70;0.70;;;;;;;;;;5007710;28;20559;-61
2023/03/25 09:40:21;;;;;;;2.45;0.90;;;;;;;;;;5005991;28;20415;-60
2023/03/25 09:42:54;;;;;;;2.78;1.25;;;;;;;;;;5007332;28;20041;-61
2023/03/25 09:45:43;;;;;;;1.45;0.75;;;;;;;;;;5004546;28;20061;-61
2023/03/25 09:48:28;;;;;;;1.33;0.70;;;;;;;;;;5005977;28;20400;-61
2023/03/25 09:51:11;;;;;;;2.17;0.73;;;;;;;;;;5006868;28;20048;-60
2023/03/25 09:53:59;;;;;;;3.42;1.30;;;;;;;;;;5009289;28;20030;-61
2023/03/25 09:56:28;;;;;;;1.23;0.80;;;;;;;;;;5007034;28;20034;-63
2023/03/25 09:59:06;;;;;;;3.05;0.80;;;;;;;;;;5008971;28;20049;-61
2023/03/25 10:01:41;;;;;;;3.08;0.90;;;;;;;;;;5005619;28;20050;-62
2023/03/25 10:04:58;;;;;;;8.05;1.60;;;;;;;;;;5004393;28;20030;-60
2023/03/25 10:07:33;;;;;;;2.45;0.70;;;;;;;;;;5021298;28;20058;-61
2023/03/25 10:10:20;;;;;;;0.85;0.60;;;;;;;;;;5003377;28;20503;-60
2023/03/25 10:12:50;;;;;;;2.05;0.90;;;;;;;;;;5007162;28;20037;-60
2023/03/25 10:15:37;;;;;;;1.25;0.57;;;;;;;;;;5008870;28;20515;-60
2023/03/25 10:18:55;;;;;;;1.65;1.20;;;;;;;;;;5010125;28;20534;-61
2023/03/25 10:21:32;;;;;;;5.73;2.43;;;;;;;;;;4995191;28;20049;-61
2023/03/25 10:24:01;;;;;;;2.78;1.10;;;;;;;;;;5007705;28;20488;-61
2023/03/25 10:26:36;;;;;;;2.97;1.13;;;;;;;;;;5007594;28;20042;-61
2023/03/25 10:29:09;;;;;;;1.55;0.90;;;;;;;;;;5010073;28;20037;-61
2023/03/25 10:31:42;;;;;;;1.33;1.17;;;;;;;;;;5012262;28;20557;-60
2023/03/25 10:34:17;;;;;;;1.77;1.50;;;;;;;;;;5009161;28;20036;-60
2023/03/25 10:36:56;;;;;;;3.38;1.02;;;;;;;;;;5011702;28;20042;-60
2023/03/25 10:39:32;;;;;;;3.28;1.33;;;;;;;;;;5007564;28;20045;-61
2023/03/25 10:42:10;;;;;;;4.47;1.67;;;;;;;;;;5006486;28;20042;-60
2023/03/25 10:44:36;;;;;;;1.73;1.00;;;;;;;;;;5008814;28;20045;-61
2023/03/25 10:47:06;;;;;;;3.17;1.58;;;;;;;;;;5012420;28;20068;-62
2023/03/25 10:49:35;;;;;;;3.53;1.45;;;;;;;;;;5011474;28;20030;-62
2023/03/25 10:52:02;;;;;;;5.90;2.20;;;;;;;;;;5010263;28;20042;-62
2023/03/25 10:54:33;;;;;;;4.10;1.63;;;;;;;;;;5009207;28;20049;-62
2023/03/25 10:57:11;;;;;;;20.65;6.38;;;;;;;;;;5012756;28;20049;-62
2023/03/25 11:00:00;;;;;;;3.58;1.90;;;;;;;;;;5009871;28;20046;-62
2023/03/25 11:02:29;;;;;;;5.18;2.38;;;;;;;;;;5009683;28;20061;-61
2023/03/25 11:05:02;;;;;;;4.00;1.95;;;;;;;;;;5012206;28;20030;-61
2023/03/25 11:07:53;;;;;;;4.65;1.73;;;;;;;;;;5012759;28;20625;-61
2023/03/25 11:10:23;;;;;;;3.85;1.52;;;;;;;;;;5006221;28;20053;-62
2023/03/25 11:12:51;;;;;;;2.70;1.45;;;;;;;;;;5008007;28;20093;-60
2023/03/25 11:15:20;;;;;;;6.80;1.70;;;;;;;;;;5009162;28;20395;-61
2023/03/25 11:17:57;;;;;;;2.65;1.33;;;;;;;;;;5010973;28;20352;-60
2023/03/25 11:20:28;;;;;;;3.42;1.48;;;;;;;;;;5007258;28;20045;-61
2023/03/25 11:23:03;;;;;;;9.30;1.60;;;;;;;;;;5008808;28;20048;-62
2023/03/25 11:25:36;;;;;;;2.92;1.20;;;;;;;;;;5008184;28;20068;-61
2023/03/25 11:28:18;;;;;;;2.78;1.25;;;;;;;;;;5008436;28;20037;-61
2023/03/25 11:31:06;;;;;;;7.20;1.52;;;;;;;;;;4997868;28;20054;-61
2023/03/25 11:33:35;;;;;;;2.30;0.90;;;;;;;;;;5004398;28;20033;-60
2023/03/25 11:36:27;;;;;;;3.65;1.20;;;;;;;;;;5010518;28;20037;-60
2023/03/25 11:38:57;;;;;;;3.67;1.70;;;;;;;;;;5010513;28;20442;-61
2023/03/25 11:41:28;;;;;;;5.70;1.40;;;;;;;;;;5006866;28;20034;-61
2023/03/25 11:43:54;;;;;;;3.67;1.92;;;;;;;;;;5005691;28;20049;-62
2023/03/25 11:46:21;;;;;;;3.38;1.60;;;;;;;;;;5006701;28;20026;-61
2023/03/25 11:48:49;;;;;;;3.80;1.33;;;;;;;;;;5010487;28;20037;-61
2023/03/25 11:51:21;;;;;;;3.78;1.20;;;;;;;;;;5004844;28;20046;-61
2023/03/25 11:54:00;;;;;;;5.72;1.75;;;;;;;;;;5008352;28;20034;-62
2023/03/25 11:56:32;;;;;;;3.20;1.23;;;;;;;;;;5006576;28;20050;-61
2023/03/25 11:59:00;;;;;;;2.05;0.95;;;;;;;;;;5009729;28;20046;-60
2023/03/25 12:01:47;;;;;;;3.85;1.92;;;;;;;;;;5008476;28;20038;-60
2023/03/25 12:04:21;;;;;;;1.92;0.90;;;;;;;;;;5003786;28;20574;-59
2023/03/25 12:07:10;;;;;;;3.55;1.35;;;;;;;;;;5008393;28;20562;-61
2023/03/25 12:09:36;;;;;;;2.17;1.00;;;;;;;;;;5007829;28;20025;-63
2023/03/25 12:12:07;;;;;;;4.28;2.10;;;;;;;;;;5007349;28;20038;-61
2023/03/25 12:14:55;;;;;;;5.03;1.65;;;;;;;;;;5007322;28;20057;-61
2023/03/25 12:17:21;;;;;;;1.63;0.80;;;;;;;;;;5007869;28;20033;-62
2023/03/25 12:19:50;;;;;;;4.65;2.22;;;;;;;;;;4970360;28;1124935;-62
2023/03/25 12:22:16;;;;;;;3.45;1.42;;;;;;;;;;5006502;28;20037;-62
2023/03/25 12:24:45;;;;;;;3.60;1.40;;;;;;;;;;5007502;28;20038;-62
2023/03/25 12:27:45;;;;;;;9.83;3.80;;;;;;;;;;5005235;28;20508;-57
2023/03/25 12:30:28;;;;;;;9.77;3.88;;;;;;;;;;5005673;28;20038;-62
2023/03/25 12:33:20;;;;;;;2.35;1.20;;;;;;;;;;5008134;28;20049;-63
2023/03/25 12:36:03;;;;;;;3.72;1.13;;;;;;;;;;5008172;28;20046;-62
2023/03/25 12:39:00;;;;;;;2.10;1.10;;;;;;;;;;5007235;28;20431;-62
2023/03/25 12:41:58;;;;;;;2.25;1.08;;;;;;;;;;5005331;28;20041;-63
2023/03/25 12:44:45;;;;;;;3.22;1.00;;;;;;;;;;5013752;28;20060;-63
2023/03/25 12:47:33;;;;;;;1.42;1.02;;;;;;;;;;5008304;28;20026;-61
2023/03/25 12:50:19;;;;;;;1.98;1.20;;;;;;;;;;5008964;28;20037;-62
2023/03/25 12:52:57;;;;;;;5.43;1.90;;;;;;;;;;5006497;28;20041;-61
2023/03/25 12:55:50;;;;;;;6.03;0.95;;;;;;;;;;5008590;28;20488;-61
2023/03/25 12:58:19;;;;;;;8.38;2.75;;;;;;;;;;5004388;28;20033;-62
2023/03/25 13:01:02;;;;;;;2.80;0.95;;;;;;;;;;5007658;28;20034;-62
2023/03/25 13:03:39;;;;;;;2.75;1.05;;;;;;;;;;5008871;28;20053;-62
2023/03/25 13:06:33;;;;;;;2.42;0.80;;;;;;;;;;5009489;28;20395;-62
2023/03/25 13:09:11;;;;;;;7.05;1.98;;;;;;;;;;5014746;28;20113;-62
2023/03/25 13:11:46;;;;;;;3.75;1.40;;;;;;;;;;5005998;28;20034;-59
2023/03/25 13:14:22;;;;;;;3.30;0.80;;;;;;;;;;5006946;28;20424;-61
2023/03/25 13:16:52;;;;;;;1.95;0.80;;;;;;;;;;5004860;28;20515;-63
2023/03/25 13:19:24;;;;;;;2.60;0.80;;;;;;;;;;5005836;28;20056;-62
2023/03/25 13:22:06;;;;;;;3.22;1.13;;;;;;;;;;5008958;28;20030;-63
2023/03/25 13:24:53;;;;;;;3.75;1.10;;;;;;;;;;5005915;28;20026;-60
2023/03/25 13:27:19;;;;;;;2.13;0.90;;;;;;;;;;5006314;28;20046;-62
2023/03/25 13:29:50;;;;;;;4.00;1.05;;;;;;;;;;5004928;28;20133;-61
2023/03/25 13:32:21;;;;;;;1.52;1.13;;;;;;;;;;5002247;28;20389;-62
2023/03/25 13:34:55;;;;;;;5.68;0.90;;;;;;;;;;5002535;28;20150;-63
2023/03/25 13:37:39;;;;;;;3.72;1.10;;;;;;;;;;5006358;28;20042;-61
2023/03/25 13:40:21;;;;;;;1.83;0.90;;;;;;;;;;4999378;28;20542;-62
2023/03/25 13:42:59;;;;;;;1.88;1.25;;;;;;;;;;5005347;28;20054;-62
2023/03/25 13:45:30;;;;;;;2.45;1.10;;;;;;;;;;4997669;28;20044;-62
2023/03/25 13:48:15;;;;;;;1.55;1.15;;;;;;;;;;5007919;28;20049;-62
2023/03/25 13:50:42;;;;;;;2.65;0.85;;;;;;;;;;5006705;28;20053;-63
2023/03/25 13:53:30;;;;;;;1.77;0.90;;;;;;;;;;5005908;28;20030;-61
2023/03/25 13:56:05;;;;;;;2.87;0.77;;;;;;;;;;5007798;28;20122;-62
2023/03/25 13:58:56;;;;;;;1.48;0.70;;;;;;;;;;5007488;28;20284;-62
2023/03/25 14:01:42;;;;;;;1.33;0.80;;;;;;;;;;5005014;28;20038;-63
2023/03/25 14:04:41;;;;;;;1.38;0.90;;;;;;;;;;5001959;28;20037;-62
2023/03/25 14:07:17;;;;;;;3.88;1.45;;;;;;;;;;5009057;28;20045;-62
2023/03/25 14:10:09;;;;;;;3.30;1.00;;;;;;;;;;5005002;28;20038;-62
2023/03/25 14:12:40;;;;;;;6.03;1.15;;;;;;;;;;5009346;28;20037;-63
2023/03/25 14:15:18;;;;;;;2.70;0.88;;;;;;;;;;5003510;28;20702;-62
2023/03/25 14:17:45;;;;;;;3.30;1.00;;;;;;;;;;5006362;28;20045;-62
2023/03/25 14:20:23;;;;;;;1.88;0.90;;;;;;;;;;5005515;28;20059;-61
2023/03/25 14:22:55;;;;;;;4.90;1.40;;;;;;;;;;5006297;28;20419;-62
2023/03/25 14:25:30;;;;;;;3.45;1.00;;;;;;;;;;5004046;28;20037;-62
2023/03/25 14:27:57;;;;;;;4.05;1.05;;;;;;;;;;5007831;28;20065;-62
2023/03/25 14:30:26;;;;;;;4.38;1.30;;;;;;;;;;5037619;28;20054;-62
2023/03/25 14:32:56;;;;;;;;;;;;;;;;;;5008896;28;20495;-61
2023/03/25 14:35:37;;;;;;;1.60;0.80;;;;;;;;;;4999500;28;19917;-61
2023/03/25 14:38:06;;;;;;;3.38;1.00;;;;;;;;;;5005520;28;20507;-61
2023/03/25 14:40:40;;;;;;;2.90;0.93;;;;;;;;;;5005100;28;20416;-61
2023/03/25 14:43:31;;;;;;;2.03;1.10;;;;;;;;;;5002781;28;20091;-61
2023/03/25 14:46:09;;;;;;;2.88;1.00;;;;;;;;;;5008028;28;20503;-61
2023/03/25 14:48:43;;;;;;;3.00;1.00;;;;;;;;;;5000195;28;20415;-61
2023/03/25 14:51:22;;;;;;;2.17;0.88;;;;;;;;;;5001995;28;20049;-61
2023/03/25 14:53:53;;;;;;;2.95;1.10;;;;;;;;;;5008975;28;20072;-60
2023/03/25 14:56:35;;;;;;;3.50;1.10;;;;;;;;;;5007817;28;20046;-61
2023/03/25 14:59:17;;;;;;;1.88;0.98;;;;;;;;;;5002420;28;20422;-61
2023/03/25 15:01:45;;;;;;;2.13;1.38;;;;;;;;;;5008376;28;20030;-61
2023/03/25 15:04:33;;;;;;;2.55;1.23;;;;;;;;;;5008656;28;20046;-61
2023/03/25 15:07:01;;;;;;;2.65;1.05;;;;;;;;;;5005091;28;20368;-61
2023/03/25 15:09:29;;;;;;;2.42;1.20;;;;;;;;;;5005445;28;20057;-60
2023/03/25 15:11:55;;;;;;;2.35;1.17;;;;;;;;;;5008140;28;20138;-62
2023/03/25 15:14:27;;;;;;;4.78;1.38;;;;;;;;;;5009259;28;20407;-61
2023/03/25 15:16:57;;;;;;;5.40;1.40;;;;;;;;;;5009934;28;20054;-61